createdAt,value
2023-01-17T00:00:29.516Z,100.00
2023-01-17T00:02:59.160Z,100.00
2023-01-17T00:05:45.101Z,100.00
2023-01-17T00:08:32.020Z,100.00
2023-01-17T00:11:00.361Z,100.00
2023-01-17T00:13:28.585Z,100.00
2023-01-17T00:15:57.215Z,100.00
2023-01-17T00:18:25.456Z,100.00
2023-01-17T00:21:10.759Z,100.00
2023-01-17T00:23:56.717Z,100.00
2023-01-17T00:26:25.168Z,100.00
2023-01-17T00:28:52.084Z,100.00
2023-01-17T00:31:20.231Z,100.00
2023-01-17T00:33:47.197Z,100.00
2023-01-17T00:36:14.132Z,100.00
2023-01-17T00:38:42.467Z,100.00
2023-01-17T00:41:11.173Z,100.00
2023-01-17T00:43:56.724Z,100.00
2023-01-17T00:46:42.805Z,100.00
2023-01-17T00:49:28.233Z,100.00
2023-01-17T00:52:14.112Z,100.00
2023-01-17T00:55:01.068Z,100.00
2023-01-17T00:57:46.160Z,100.00
2023-01-17T01:00:32.527Z,100.00
2023-01-17T01:03:17.818Z,100.00
2023-01-17T01:06:03.678Z,100.00
2023-01-17T01:08:49.463Z,100.00
2023-01-17T01:11:39.385Z,100.00
2023-01-17T01:14:26.371Z,100.00
2023-01-17T01:17:12.308Z,100.00
2023-01-17T01:19:58.239Z,100.00
2023-01-17T01:22:43.942Z,100.00
2023-01-17T01:25:29.721Z,100.00
2023-01-17T01:28:24.352Z,100.00
2023-01-17T01:31:09.672Z,100.00
2023-01-17T01:33:38.006Z,98.89
2023-01-17T01:36:09.141Z,99.39
2023-01-17T01:38:37.454Z,97.51
2023-01-17T01:41:06.057Z,98.37
2023-01-17T01:43:47.593Z,98.10
2023-01-17T01:46:19.533Z,98.73
2023-01-17T01:48:51.684Z,98.95
2023-01-17T01:51:26.381Z,98.97
2023-01-17T01:53:59.969Z,99.47
2023-01-17T01:56:30.315Z,98.99
2023-01-17T01:59:04.328Z,99.38
2023-01-17T02:01:32.905Z,99.25
2023-01-17T02:04:01.319Z,99.42
2023-01-17T02:06:33.705Z,99.77
2023-01-17T02:09:08.522Z,99.80
2023-01-17T02:11:38.758Z,99.36
2023-01-17T02:14:08.675Z,99.23
2023-01-17T02:16:50.094Z,99.48
2023-01-17T02:19:44.695Z,99.46
2023-01-17T02:22:39.338Z,98.78
2023-01-17T02:25:36.025Z,98.38
2023-01-17T02:28:19.982Z,99.08
2023-01-17T02:30:55.006Z,98.37
2023-01-17T02:33:33.273Z,99.01
2023-01-17T02:36:12.199Z,98.51
2023-01-17T02:38:50.568Z,98.72
2023-01-17T02:41:23.369Z,99.11
2023-01-17T02:43:52.379Z,98.14
2023-01-17T02:46:21.936Z,98.54
2023-01-17T02:48:51.901Z,98.45
2023-01-17T02:51:46.126Z,98.90
2023-01-17T02:54:49.059Z,98.70
2023-01-17T02:57:30.860Z,97.85
2023-01-17T03:00:04.091Z,97.60
2023-01-17T03:02:42.150Z,97.60
2023-01-17T03:05:15.541Z,97.37
2023-01-17T03:07:44.632Z,97.20
2023-01-17T03:10:16.074Z,96.01
2023-01-17T03:12:44.879Z,97.26
2023-01-17T03:15:14.197Z,96.79
2023-01-17T03:17:48.157Z,96.91
2023-01-17T03:20:16.650Z,96.07
2023-01-17T03:22:44.658Z,96.17
2023-01-17T03:25:12.811Z,95.34
2023-01-17T03:27:40.966Z,95.69
2023-01-17T03:30:10.431Z,95.77
2023-01-17T03:32:38.600Z,95.77
2023-01-17T03:35:09.027Z,96.18
2023-01-17T03:37:37.155Z,96.22
2023-01-17T03:40:05.944Z,95.58
2023-01-17T03:42:34.146Z,95.91
2023-01-17T03:45:02.224Z,96.36
2023-01-17T03:47:30.495Z,96.44
2023-01-17T03:49:58.536Z,96.12
2023-01-17T03:52:28.248Z,96.75
2023-01-17T03:54:56.421Z,96.30
2023-01-17T03:57:24.590Z,96.62
2023-01-17T03:59:52.697Z,96.39
2023-01-17T04:02:20.905Z,96.68
2023-01-17T04:04:48.917Z,96.62
2023-01-17T04:07:17.090Z,97.25
2023-01-17T04:09:46.624Z,97.06
2023-01-17T04:12:14.655Z,96.93
2023-01-17T04:14:42.872Z,96.79
2023-01-17T04:17:13.358Z,97.35
2023-01-17T04:19:42.255Z,97.21
2023-01-17T04:22:10.516Z,97.30
2023-01-17T04:24:38.628Z,97.67
2023-01-17T04:27:08.228Z,97.28
2023-01-17T04:29:36.383Z,97.00
2023-01-17T04:32:04.677Z,97.42
2023-01-17T04:34:33.127Z,97.14
2023-01-17T04:37:01.354Z,97.10
2023-01-17T04:39:29.486Z,97.08
2023-01-17T04:41:57.708Z,96.54
2023-01-17T04:44:27.549Z,97.15
2023-01-17T04:46:55.560Z,96.50
2023-01-17T04:49:23.705Z,96.81
2023-01-17T04:51:51.893Z,96.28
2023-01-17T04:54:20.160Z,96.30
2023-01-17T04:56:49.184Z,96.14
2023-01-17T04:59:17.431Z,95.79
2023-01-17T05:01:49.042Z,96.16
2023-01-17T05:04:17.413Z,96.00
2023-01-17T05:06:45.975Z,96.01
2023-01-17T05:09:14.140Z,96.16
2023-01-17T05:11:42.503Z,95.93
2023-01-17T05:14:11.185Z,96.03
2023-01-17T05:16:39.483Z,96.18
2023-01-17T05:19:09.242Z,96.14
2023-01-17T05:21:37.477Z,95.94
2023-01-17T05:24:06.132Z,95.39
2023-01-17T05:26:34.422Z,95.59
2023-01-17T05:29:02.711Z,95.94
2023-01-17T05:31:30.863Z,95.90
2023-01-17T05:33:59.142Z,95.59
2023-01-17T05:36:28.738Z,95.83
2023-01-17T05:38:56.942Z,95.76
2023-01-17T05:41:25.198Z,95.33
2023-01-17T05:43:53.469Z,95.15
2023-01-17T05:46:21.754Z,95.10
2023-01-17T05:48:49.988Z,95.19
2023-01-17T05:51:18.102Z,94.74
2023-01-17T05:53:47.735Z,94.72
2023-01-17T05:56:15.980Z,94.12
2023-01-17T05:58:47.171Z,94.67
2023-01-17T06:01:15.329Z,94.69
2023-01-17T06:03:43.461Z,95.06
2023-01-17T06:06:11.608Z,94.32
2023-01-17T06:08:39.785Z,94.08
2023-01-17T06:11:09.499Z,94.85
2023-01-17T06:13:37.668Z,94.09
2023-01-17T06:16:06.395Z,94.53
2023-01-17T06:18:34.978Z,94.10
2023-01-17T06:21:03.079Z,93.76
2023-01-17T06:23:31.371Z,93.70
2023-01-17T06:26:03.040Z,93.22
2023-01-17T06:28:32.743Z,93.51
2023-01-17T06:31:01.302Z,93.38
2023-01-17T06:33:29.476Z,93.22
2023-01-17T06:35:57.693Z,93.48
2023-01-17T06:38:27.390Z,93.60
2023-01-17T06:40:55.628Z,92.89
2023-01-17T06:43:23.803Z,93.12
2023-01-17T06:45:53.607Z,93.15
2023-01-17T06:48:21.966Z,93.10
2023-01-17T06:50:50.054Z,92.72
2023-01-17T06:53:18.278Z,93.37
2023-01-17T06:55:46.471Z,93.34
2023-01-17T06:58:14.706Z,92.98
2023-01-17T07:00:43.039Z,92.13
2023-01-17T07:03:19.298Z,92.26
2023-01-17T07:05:47.793Z,92.75
2023-01-17T07:08:17.182Z,92.50
2023-01-17T07:10:45.820Z,91.54
2023-01-17T07:13:14.569Z,92.09
2023-01-17T07:15:42.742Z,92.35
2023-01-17T07:18:10.935Z,92.46
2023-01-17T07:20:41.502Z,92.29
2023-01-17T07:23:09.673Z,92.18
2023-01-17T07:25:37.824Z,92.32
2023-01-17T07:28:05.911Z,91.71
2023-01-17T07:30:34.304Z,91.63
2023-01-17T07:33:02.864Z,92.12
2023-01-17T07:35:30.958Z,92.00
2023-01-17T07:38:00.520Z,92.40
2023-01-17T07:40:28.638Z,92.33
2023-01-17T07:43:02.782Z,91.87
2023-01-17T07:45:31.060Z,91.74
2023-01-17T07:47:59.508Z,92.30
2023-01-17T07:50:30.425Z,91.91
2023-01-17T07:53:00.330Z,91.81
2023-01-17T07:55:32.419Z,92.08
2023-01-17T07:58:03.156Z,91.91
2023-01-17T08:00:32.178Z,91.69
2023-01-17T08:03:01.305Z,90.90
2023-01-17T08:05:31.740Z,90.33
2023-01-17T08:08:00.880Z,90.91
2023-01-17T08:10:31.707Z,91.25
2023-01-17T08:13:00.463Z,90.58
2023-01-17T08:15:28.950Z,90.63
2023-01-17T08:17:57.825Z,90.36
2023-01-17T08:20:30.935Z,90.22
2023-01-17T08:22:59.408Z,89.83
2023-01-17T08:25:28.846Z,90.86
2023-01-17T08:28:00.009Z,90.36
2023-01-17T08:30:29.267Z,90.34
2023-01-17T08:32:58.243Z,90.23
2023-01-17T08:35:28.458Z,90.15
2023-01-17T08:38:00.754Z,90.50
2023-01-17T08:40:29.669Z,89.70
2023-01-17T08:43:01.082Z,90.33
2023-01-17T08:45:31.145Z,89.75
2023-01-17T08:48:00.176Z,90.48
2023-01-17T08:50:30.103Z,90.26
2023-01-17T08:53:01.378Z,89.86
2023-01-17T08:55:30.942Z,89.72
2023-01-17T08:58:00.944Z,90.43
2023-01-17T09:00:30.187Z,90.51
2023-01-17T09:02:58.566Z,89.89
2023-01-17T09:05:28.469Z,89.83
2023-01-17T09:07:57.883Z,90.12
2023-01-17T09:10:27.783Z,90.10
2023-01-17T09:12:59.738Z,90.84
2023-01-17T09:15:33.610Z,89.93
2023-01-17T09:18:02.590Z,90.02
2023-01-17T09:20:32.597Z,90.31
2023-01-17T09:23:04.115Z,90.72
2023-01-17T09:25:33.133Z,90.24
2023-01-17T09:28:03.783Z,90.23
2023-01-17T09:30:37.047Z,90.87
2023-01-17T09:33:07.169Z,90.66
2023-01-17T09:35:41.378Z,90.36
2023-01-17T09:38:10.336Z,90.66
2023-01-17T09:40:40.805Z,90.80
2023-01-17T09:43:21.335Z,91.99
2023-01-17T09:45:52.704Z,91.13
2023-01-17T09:48:30.196Z,91.72
2023-01-17T09:51:03.778Z,91.87
2023-01-17T09:53:37.708Z,91.93
2023-01-17T09:56:12.625Z,92.00
2023-01-17T09:58:47.433Z,92.80
2023-01-17T10:01:31.512Z,92.68
2023-01-17T10:04:16.506Z,93.39
2023-01-17T10:06:58.110Z,93.11
2023-01-17T10:09:50.081Z,92.74
2023-01-17T10:12:30.959Z,92.54
2023-01-17T10:15:31.901Z,93.06
2023-01-17T10:18:29.114Z,93.04
2023-01-17T10:21:03.307Z,93.39
2023-01-17T10:23:48.370Z,93.36
2023-01-17T10:26:19.156Z,93.62
2023-01-17T10:28:51.364Z,93.51
2023-01-17T10:31:24.749Z,93.89
2023-01-17T10:33:55.975Z,94.17
2023-01-17T10:36:26.291Z,93.73
2023-01-17T10:38:57.322Z,93.46
2023-01-17T10:41:30.464Z,93.96
2023-01-17T10:44:11.648Z,94.77
2023-01-17T10:46:44.469Z,94.80
2023-01-17T10:49:19.295Z,94.54
2023-01-17T10:52:10.490Z,94.38
2023-01-17T10:54:54.448Z,94.56
2023-01-17T10:57:25.442Z,94.65
2023-01-17T10:59:58.630Z,94.71
2023-01-17T11:02:31.315Z,94.39
2023-01-17T11:05:12.490Z,93.87
2023-01-17T11:07:44.209Z,93.89
2023-01-17T11:10:50.099Z,93.09
2023-01-17T11:13:26.531Z,92.79
2023-01-17T11:16:01.030Z,92.46
2023-01-17T11:18:31.917Z,92.46
2023-01-17T11:21:16.964Z,92.25
2023-01-17T11:23:49.470Z,92.04
2023-01-17T11:26:28.636Z,91.89
2023-01-17T11:29:18.834Z,91.59
2023-01-17T11:31:48.080Z,91.36
2023-01-17T11:34:20.678Z,91.08
2023-01-17T11:36:53.722Z,90.27
2023-01-17T11:39:31.274Z,88.97
2023-01-17T11:42:01.896Z,88.63
2023-01-17T11:44:35.099Z,87.84
2023-01-17T11:47:17.226Z,87.92
2023-01-17T11:49:48.947Z,86.83
2023-01-17T11:52:26.276Z,87.07
2023-01-17T11:54:57.930Z,86.18
2023-01-17T11:57:37.457Z,85.69
2023-01-17T12:00:23.707Z,85.98
2023-01-17T12:03:30.598Z,85.46
2023-01-17T12:06:26.161Z,84.80
2023-01-17T12:12:56.742Z,83.32
2023-01-17T12:16:01.422Z,83.42
2023-01-17T12:18:36.361Z,82.46
2023-01-17T12:21:21.368Z,82.19
2023-01-17T12:24:08.300Z,81.68
2023-01-17T12:26:41.903Z,81.53
2023-01-17T12:29:45.407Z,81.25
2023-01-17T12:32:41.164Z,81.33
2023-01-17T12:35:16.437Z,80.53
2023-01-17T12:38:00.300Z,80.96
2023-01-17T12:40:36.878Z,80.11
2023-01-17T12:43:13.141Z,79.92
2023-01-17T12:45:46.020Z,79.96
2023-01-17T12:48:18.226Z,79.62
2023-01-17T12:50:53.089Z,79.32
2023-01-17T12:53:35.465Z,79.66
2023-01-17T12:56:10.694Z,79.04
2023-01-17T12:58:42.975Z,79.18
2023-01-17T13:01:21.714Z,79.64
2023-01-17T13:04:05.118Z,78.77
2023-01-17T13:06:44.401Z,78.13
2023-01-17T13:09:18.466Z,79.21
2023-01-17T13:11:53.035Z,76.46
2023-01-17T13:14:21.914Z,78.38
2023-01-17T13:16:58.257Z,78.33
2023-01-17T13:19:34.953Z,77.75
2023-01-17T13:22:08.130Z,76.31
2023-01-17T13:24:46.667Z,75.83
2023-01-17T13:27:32.732Z,74.14
2023-01-17T13:30:16.398Z,74.58
2023-01-17T13:33:01.689Z,68.64
2023-01-17T13:35:42.970Z,65.83
2023-01-17T13:38:25.945Z,70.62
2023-01-17T13:40:58.531Z,65.68
2023-01-17T13:43:30.436Z,67.53
2023-01-17T13:46:03.438Z,68.26
2023-01-17T13:48:37.372Z,63.63
2023-01-17T13:51:06.364Z,66.64
2023-01-17T13:53:48.107Z,63.91
2023-01-17T13:56:25.141Z,65.09
2023-01-17T13:58:59.296Z,65.48
2023-01-17T14:01:55.645Z,65.89
2023-01-17T14:04:26.169Z,65.08
2023-01-17T14:06:58.052Z,63.57
2023-01-17T14:09:31.143Z,63.40
2023-01-17T14:12:03.637Z,65.04
2023-01-17T14:14:52.909Z,66.95
2023-01-17T14:17:48.930Z,67.33
2023-01-17T14:21:07.762Z,66.53
2023-01-17T14:23:51.688Z,66.03
2023-01-17T14:26:33.832Z,67.46
2023-01-17T14:29:34.944Z,66.85
2023-01-17T14:32:04.088Z,67.75
2023-01-17T14:34:34.731Z,68.30
2023-01-17T14:37:07.811Z,69.37
2023-01-17T14:39:46.542Z,69.66
2023-01-17T14:42:18.604Z,70.17
2023-01-17T14:44:49.413Z,71.03
2023-01-17T14:47:21.360Z,71.16
2023-01-17T14:49:49.403Z,72.46
2023-01-17T14:52:19.182Z,72.07
2023-01-17T14:54:52.908Z,72.67
2023-01-17T14:57:28.021Z,72.38
2023-01-17T15:00:14.983Z,72.46
2023-01-17T15:02:44.666Z,72.52
2023-01-17T15:05:17.425Z,72.71
2023-01-17T15:07:48.684Z,72.48
2023-01-17T15:10:21.952Z,72.31
2023-01-17T15:12:50.171Z,72.51
2023-01-17T15:15:33.053Z,72.17
2023-01-17T15:18:19.476Z,72.76
2023-01-17T15:20:54.701Z,73.34
2023-01-17T15:23:24.710Z,73.14
2023-01-17T15:25:55.351Z,73.18
2023-01-17T15:28:23.499Z,73.24
2023-01-17T15:31:19.046Z,73.51
2023-01-17T15:33:49.249Z,73.28
2023-01-17T15:36:27.430Z,73.12
2023-01-17T15:39:00.277Z,74.09
2023-01-17T15:41:32.761Z,73.61
2023-01-17T15:44:01.535Z,73.81
2023-01-17T15:46:33.093Z,73.67
2023-01-17T15:49:09.317Z,73.87
2023-01-17T15:51:41.672Z,73.58
2023-01-17T15:54:34.647Z,73.81
2023-01-17T15:57:07.453Z,73.69
2023-01-17T15:59:45.567Z,73.92
2023-01-17T16:02:55.413Z,73.61
2023-01-17T16:05:46.325Z,73.59
2023-01-17T16:08:38.651Z,73.49
2023-01-17T16:11:15.782Z,74.04
2023-01-17T16:13:48.831Z,74.02
2023-01-17T16:16:24.032Z,74.40
2023-01-17T16:19:01.234Z,74.28
2023-01-17T16:21:31.318Z,74.79
2023-01-17T16:24:00.970Z,74.41
2023-01-17T16:26:29.877Z,74.92
2023-01-17T16:28:59.427Z,74.78
2023-01-17T16:31:28.936Z,74.49
2023-01-17T16:33:57.004Z,75.27
2023-01-17T16:36:25.111Z,75.25
2023-01-17T16:38:53.611Z,74.92
2023-01-17T16:41:22.033Z,75.61
2023-01-17T16:44:00.449Z,75.20
2023-01-17T16:46:29.559Z,75.57
2023-01-17T16:48:57.822Z,75.72
2023-01-17T16:51:26.117Z,75.51
2023-01-17T16:53:54.194Z,75.49
2023-01-17T16:56:22.340Z,75.43
2023-01-17T16:58:53.537Z,75.82
2023-01-17T17:01:23.214Z,75.35
2023-01-17T17:03:51.554Z,75.72
2023-01-17T17:06:22.884Z,76.16
2023-01-17T17:08:52.700Z,76.14
2023-01-17T17:11:23.397Z,76.06
2023-01-17T17:13:55.608Z,76.31
2023-01-17T17:16:30.024Z,76.20
2023-01-17T17:18:59.869Z,75.74
2023-01-17T17:21:29.337Z,76.19
2023-01-17T17:23:59.216Z,76.23
2023-01-17T17:26:29.065Z,76.46
2023-01-17T17:28:57.246Z,75.84
2023-01-17T17:31:27.655Z,76.33
2023-01-17T17:33:59.548Z,76.46
2023-01-17T17:36:27.826Z,76.62
2023-01-17T17:38:56.424Z,76.72
2023-01-17T17:41:26.128Z,76.63
2023-01-17T17:43:54.498Z,76.91
2023-01-17T17:46:24.873Z,76.87
2023-01-17T17:48:54.786Z,77.13
2023-01-17T17:51:27.941Z,77.14
2023-01-17T17:53:57.117Z,77.19
2023-01-17T17:56:25.479Z,77.36
2023-01-17T17:58:56.514Z,77.71
2023-01-17T18:01:24.995Z,77.52
2023-01-17T18:03:57.065Z,77.92
2023-01-17T18:06:25.815Z,77.85
2023-01-17T18:08:54.218Z,78.54
2023-01-17T18:11:24.735Z,78.14
2023-01-17T18:13:55.009Z,78.50
2023-01-17T18:16:25.449Z,78.07
2023-01-17T18:18:58.445Z,78.45
2023-01-17T18:21:29.414Z,78.29
2023-01-17T18:23:59.891Z,78.88
2023-01-17T18:26:29.639Z,79.33
2023-01-17T18:28:59.304Z,79.25
2023-01-17T18:31:29.102Z,78.92
2023-01-17T18:34:00.896Z,79.41
2023-01-17T18:36:29.654Z,79.41
2023-01-17T18:38:58.465Z,79.64
2023-01-17T18:41:28.740Z,79.89
2023-01-17T18:43:57.708Z,80.57
2023-01-17T18:46:27.338Z,79.88
2023-01-17T18:48:59.122Z,80.21
2023-01-17T18:51:29.564Z,80.82
2023-01-17T18:53:58.143Z,81.08
2023-01-17T18:56:31.013Z,81.02
2023-01-17T18:58:59.496Z,80.78
2023-01-17T19:01:28.992Z,80.95
2023-01-17T19:04:00.571Z,80.60
2023-01-17T19:06:30.439Z,80.83
2023-01-17T19:08:59.829Z,81.45
2023-01-17T19:11:29.231Z,81.90
2023-01-17T19:13:58.068Z,81.29
2023-01-17T19:16:29.730Z,81.85
2023-01-17T19:19:03.385Z,82.21
2023-01-17T19:21:35.109Z,82.34
2023-01-17T19:24:03.321Z,82.52
2023-01-17T19:26:31.594Z,82.62
2023-01-17T19:29:00.479Z,82.85
2023-01-17T19:31:30.837Z,83.36
2023-01-17T19:34:01.656Z,82.77
2023-01-17T19:36:33.906Z,82.93
2023-01-17T19:39:06.542Z,83.67
2023-01-17T19:42:02.774Z,83.92
2023-01-17T19:44:29.604Z,83.69
2023-01-17T19:46:57.913Z,84.63
2023-01-17T19:49:27.540Z,84.18
2023-01-17T19:51:55.779Z,83.95
2023-01-17T19:54:24.163Z,85.01
2023-01-17T19:56:52.745Z,84.97
2023-01-17T19:59:22.738Z,84.58
2023-01-17T20:01:50.962Z,85.18
2023-01-17T20:04:21.585Z,84.61
2023-01-17T20:06:51.279Z,84.71
2023-01-17T20:09:19.304Z,85.49
2023-01-17T20:11:49.090Z,85.17
2023-01-17T20:14:17.795Z,85.65
2023-01-17T20:16:47.641Z,85.83
2023-01-17T20:19:15.851Z,85.89
2023-01-17T20:21:46.373Z,85.70
2023-01-17T20:24:16.969Z,86.19
2023-01-17T20:26:45.077Z,85.99
2023-01-17T20:29:15.405Z,86.11
2023-01-17T20:31:45.591Z,86.14
2023-01-17T20:34:19.702Z,85.81
2023-01-17T20:36:51.028Z,86.46
2023-01-17T20:39:22.036Z,85.90
2023-01-17T20:41:51.650Z,86.01
2023-01-17T20:44:21.236Z,86.48
2023-01-17T20:46:49.519Z,86.88
2023-01-17T20:49:20.324Z,86.92
2023-01-17T20:51:49.036Z,86.37
2023-01-17T20:54:27.461Z,86.40
2023-01-17T20:56:55.780Z,86.76
2023-01-17T20:59:24.177Z,87.17
2023-01-17T21:01:53.010Z,87.16
2023-01-17T21:04:25.822Z,87.03
2023-01-17T21:06:55.655Z,86.61
2023-01-17T21:09:23.656Z,87.23
2023-01-17T21:11:54.457Z,87.30
2023-01-17T21:14:22.980Z,87.25
2023-01-17T21:16:51.540Z,86.75
2023-01-17T21:19:20.576Z,86.68
2023-01-17T21:21:50.341Z,87.10
2023-01-17T21:24:19.276Z,87.08
2023-01-17T21:26:51.591Z,87.82
2023-01-17T21:29:21.123Z,86.93
2023-01-17T21:31:49.126Z,87.25
2023-01-17T21:34:17.435Z,87.11
2023-01-17T21:36:45.485Z,88.26
2023-01-17T21:39:15.885Z,88.05
2023-01-17T21:41:47.151Z,88.14
2023-01-17T21:44:16.826Z,87.46
2023-01-17T21:46:46.678Z,88.34
2023-01-17T21:49:15.214Z,87.79
2023-01-17T21:52:01.736Z,88.02
2023-01-17T21:54:59.901Z,88.62
2023-01-17T21:57:45.417Z,87.99
2023-01-17T22:00:15.645Z,88.41
2023-01-17T22:02:45.920Z,87.83
2023-01-17T22:05:16.490Z,87.92
2023-01-17T22:08:05.658Z,87.50
2023-01-17T22:10:44.643Z,88.23
2023-01-17T22:13:14.366Z,88.03
2023-01-17T22:15:42.820Z,88.04
2023-01-17T22:18:12.858Z,88.27
2023-01-17T22:20:42.050Z,88.22
2023-01-17T22:23:11.580Z,87.60
2023-01-17T22:25:42.535Z,88.63
2023-01-17T22:28:10.648Z,88.10
2023-01-17T22:30:38.750Z,88.38
2023-01-17T22:33:09.634Z,88.18
2023-01-17T22:35:39.184Z,88.63
2023-01-17T22:38:07.741Z,88.29
2023-01-17T22:40:38.331Z,88.23
2023-01-17T22:43:06.472Z,87.88
2023-01-17T22:45:34.563Z,87.94
2023-01-17T22:48:02.819Z,88.49
2023-01-17T22:50:30.864Z,88.15
2023-01-17T22:53:00.307Z,88.50
2023-01-17T22:55:28.574Z,87.99
2023-01-17T22:57:57.223Z,88.37
2023-01-17T23:00:25.319Z,88.47
2023-01-17T23:02:53.392Z,89.02
2023-01-17T23:05:22.991Z,88.63
2023-01-17T23:07:51.489Z,89.28
2023-01-17T23:10:34.894Z,88.44
2023-01-17T23:13:03.065Z,88.56
2023-01-17T23:15:48.455Z,89.12
2023-01-17T23:18:34.276Z,88.86
2023-01-17T23:21:02.306Z,88.88
2023-01-17T23:23:30.285Z,89.04
2023-01-17T23:26:02.370Z,89.37
2023-01-17T23:28:29.508Z,89.03
2023-01-17T23:31:05.039Z,88.92
2023-01-17T23:33:33.088Z,89.94
2023-01-17T23:36:01.618Z,89.88
2023-01-17T23:38:31.344Z,89.67
2023-01-17T23:41:23.262Z,90.09
2023-01-17T23:43:52.063Z,90.03
2023-01-17T23:46:20.052Z,89.53
2023-01-17T23:48:48.259Z,89.54
2023-01-17T23:51:16.262Z,89.75
2023-01-17T23:53:44.345Z,89.75
2023-01-17T23:56:17.708Z,90.03
2023-01-17T23:58:46.124Z,90.36
